sensor_id;sensor_type;location;lat;lon;timestamp;P1;durP1;ratioP1;P2;durP2;ratioP2
19026;SDS011;9646;52.034;5.554;2024-02-26T00:02:25;2.05;;;1.40;;
19026;SDS011;9646;52.034;5.554;2024-02-26T00:04:52;1.83;;;1.50;;
19026;SDS011;9646;52.034;5.554;2024-02-26T00:07:19;2.35;;;1.65;;
19026;SDS011;9646;52.034;5.554;2024-02-26T00:09:48;1.65;;;1.55;;
19026;SDS011;9646;52.034;5.554;2024-02-26T00:12:15;2.22;;;1.55;;
19026;SDS011;9646;52.034;5.554;2024-02-26T00:14:42;1.90;;;1.55;;
19026;SDS011;9646;52.034;5.554;2024-02-26T00:17:11;2.17;;;1.52;;
19026;SDS011;9646;52.034;5.554;2024-02-26T00:19:38;1.65;;;1.55;;
19026;SDS011;9646;52.034;5.554;2024-02-26T00:22:05;2.05;;;1.30;;
19026;SDS011;9646;52.034;5.554;2024-02-26T00:24:32;2.67;;;1.50;;
19026;SDS011;9646;52.034;5.554;2024-02-26T00:27:01;2.80;;;1.65;;
19026;SDS011;9646;52.034;5.554;2024-02-26T00:29:28;1.80;;;1.45;;
19026;SDS011;9646;52.034;5.554;2024-02-26T00:31:55;1.98;;;1.88;;
19026;SDS011;9646;52.034;5.554;2024-02-26T00:34:22;1.73;;;1.40;;
19026;SDS011;9646;52.034;5.554;2024-02-26T00:36:50;1.70;;;1.48;;
19026;SDS011;9646;52.034;5.554;2024-02-26T00:39:18;1.63;;;1.52;;
19026;SDS011;9646;52.034;5.554;2024-02-26T00:41:45;1.73;;;1.63;;
19026;SDS011;9646;52.034;5.554;2024-02-26T00:44:14;1.50;;;1.30;;
19026;SDS011;9646;52.034;5.554;2024-02-26T00:46:41;1.67;;;1.58;;
19026;SDS011;9646;52.034;5.554;2024-02-26T00:49:08;2.00;;;1.42;;
19026;SDS011;9646;52.034;5.554;2024-02-26T00:51:35;1.65;;;1.30;;
19026;SDS011;9646;52.034;5.554;2024-02-26T00:54:02;2.15;;;1.67;;
19026;SDS011;9646;52.034;5.554;2024-02-26T00:56:30;2.22;;;1.60;;
19026;SDS011;9646;52.034;5.554;2024-02-26T00:58:58;1.63;;;1.52;;
19026;SDS011;9646;52.034;5.554;2024-02-26T01:01:26;2.38;;;1.65;;
19026;SDS011;9646;52.034;5.554;2024-02-26T01:03:54;1.60;;;1.50;;
19026;SDS011;9646;52.034;5.554;2024-02-26T01:06:21;1.70;;;1.50;;
19026;SDS011;9646;52.034;5.554;2024-02-26T01:08:48;2.88;;;2.20;;
19026;SDS011;9646;52.034;5.554;2024-02-26T01:11:15;2.30;;;1.88;;
19026;SDS011;9646;52.034;5.554;2024-02-26T01:13:42;2.38;;;1.70;;
19026;SDS011;9646;52.034;5.554;2024-02-26T01:16:10;1.70;;;1.45;;
19026;SDS011;9646;52.034;5.554;2024-02-26T01:18:38;2.58;;;1.83;;
19026;SDS011;9646;52.034;5.554;2024-02-26T01:21:05;1.75;;;1.48;;
19026;SDS011;9646;52.034;5.554;2024-02-26T01:23:34;2.20;;;2.00;;
19026;SDS011;9646;52.034;5.554;2024-02-26T01:26:01;2.00;;;1.80;;
19026;SDS011;9646;52.034;5.554;2024-02-26T01:28:30;1.98;;;1.50;;
19026;SDS011;9646;52.034;5.554;2024-02-26T01:30:57;2.22;;;1.55;;
19026;SDS011;9646;52.034;5.554;2024-02-26T01:33:25;2.10;;;1.80;;
19026;SDS011;9646;52.034;5.554;2024-02-26T01:35:53;1.65;;;1.45;;
19026;SDS011;9646;52.034;5.554;2024-02-26T01:38:20;1.75;;;1.40;;
19026;SDS011;9646;52.034;5.554;2024-02-26T01:40:47;2.28;;;1.55;;
19026;SDS011;9646;52.034;5.554;2024-02-26T01:43:14;2.88;;;1.83;;
19026;SDS011;9646;52.034;5.554;2024-02-26T01:45:42;2.05;;;1.70;;
19026;SDS011;9646;52.034;5.554;2024-02-26T01:48:09;2.50;;;1.85;;
19026;SDS011;9646;52.034;5.554;2024-02-26T01:50:36;1.52;;;1.30;;
19026;SDS011;9646;52.034;5.554;2024-02-26T01:53:05;2.58;;;1.65;;
19026;SDS011;9646;52.034;5.554;2024-02-26T01:55:33;1.42;;;1.23;;
19026;SDS011;9646;52.034;5.554;2024-02-26T01:58:00;1.98;;;1.30;;
19026;SDS011;9646;52.034;5.554;2024-02-26T02:00:28;2.53;;;1.98;;
19026;SDS011;9646;52.034;5.554;2024-02-26T02:02:55;2.67;;;1.60;;
19026;SDS011;9646;52.034;5.554;2024-02-26T02:05:22;2.42;;;1.70;;
19026;SDS011;9646;52.034;5.554;2024-02-26T02:07:49;3.75;;;2.08;;
19026;SDS011;9646;52.034;5.554;2024-02-26T02:10:19;2.22;;;1.80;;
19026;SDS011;9646;52.034;5.554;2024-02-26T02:12:47;3.10;;;2.00;;
19026;SDS011;9646;52.034;5.554;2024-02-26T02:15:15;2.05;;;1.73;;
19026;SDS011;9646;52.034;5.554;2024-02-26T02:17:42;2.38;;;1.35;;
19026;SDS011;9646;52.034;5.554;2024-02-26T02:20:09;2.67;;;1.70;;
19026;SDS011;9646;52.034;5.554;2024-02-26T02:22:38;2.47;;;2.28;;
19026;SDS011;9646;52.034;5.554;2024-02-26T02:25:05;1.70;;;1.60;;
19026;SDS011;9646;52.034;5.554;2024-02-26T02:27:32;2.00;;;1.80;;
19026;SDS011;9646;52.034;5.554;2024-02-26T02:30:00;3.13;;;1.98;;
19026;SDS011;9646;52.034;5.554;2024-02-26T02:32:27;2.17;;;1.80;;
19026;SDS011;9646;52.034;5.554;2024-02-26T02:34:56;3.58;;;2.08;;
19026;SDS011;9646;52.034;5.554;2024-02-26T02:37:23;2.53;;;1.88;;
19026;SDS011;9646;52.034;5.554;2024-02-26T02:39:52;1.63;;;1.50;;
19026;SDS011;9646;52.034;5.554;2024-02-26T02:42:20;2.55;;;2.28;;
19026;SDS011;9646;52.034;5.554;2024-02-26T02:44:47;2.42;;;2.03;;
19026;SDS011;9646;52.034;5.554;2024-02-26T02:47:14;3.45;;;2.97;;
19026;SDS011;9646;52.034;5.554;2024-02-26T02:49:41;2.83;;;1.60;;
19026;SDS011;9646;52.034;5.554;2024-02-26T02:52:09;2.53;;;2.00;;
19026;SDS011;9646;52.034;5.554;2024-02-26T02:54:36;2.25;;;1.90;;
19026;SDS011;9646;52.034;5.554;2024-02-26T02:57:06;2.45;;;2.25;;
19026;SDS011;9646;52.034;5.554;2024-02-26T02:59:34;2.35;;;2.17;;
19026;SDS011;9646;52.034;5.554;2024-02-26T03:02:03;2.80;;;2.42;;
19026;SDS011;9646;52.034;5.554;2024-02-26T03:04:31;2.60;;;2.17;;
19026;SDS011;9646;52.034;5.554;2024-02-26T03:06:58;2.60;;;1.80;;
19026;SDS011;9646;52.034;5.554;2024-02-26T03:09:26;2.63;;;1.95;;
19026;SDS011;9646;52.034;5.554;2024-02-26T03:11:53;3.88;;;2.40;;
19026;SDS011;9646;52.034;5.554;2024-02-26T03:14:22;2.45;;;2.25;;
19026;SDS011;9646;52.034;5.554;2024-02-26T03:16:52;2.17;;;1.98;;
19026;SDS011;9646;52.034;5.554;2024-02-26T03:19:19;3.35;;;3.00;;
19026;SDS011;9646;52.034;5.554;2024-02-26T03:21:47;2.40;;;2.20;;
19026;SDS011;9646;52.034;5.554;2024-02-26T03:24:14;2.33;;;2.13;;
19026;SDS011;9646;52.034;5.554;2024-02-26T03:26:41;3.65;;;2.33;;
19026;SDS011;9646;52.034;5.554;2024-02-26T03:29:09;5.30;;;2.15;;
19026;SDS011;9646;52.034;5.554;2024-02-26T03:31:37;2.25;;;1.80;;
19026;SDS011;9646;52.034;5.554;2024-02-26T03:34:04;1.80;;;1.70;;
19026;SDS011;9646;52.034;5.554;2024-02-26T03:36:32;2.53;;;2.30;;
19026;SDS011;9646;52.034;5.554;2024-02-26T03:38:58;2.90;;;2.17;;
19026;SDS011;9646;52.034;5.554;2024-02-26T03:41:25;2.50;;;2.20;;
19026;SDS011;9646;52.034;5.554;2024-02-26T03:43:52;2.72;;;2.00;;
19026;SDS011;9646;52.034;5.554;2024-02-26T03:46:19;3.10;;;2.42;;
19026;SDS011;9646;52.034;5.554;2024-02-26T03:48:48;3.88;;;2.60;;
19026;SDS011;9646;52.034;5.554;2024-02-26T03:51:15;3.08;;;2.40;;
19026;SDS011;9646;52.034;5.554;2024-02-26T03:53:42;2.75;;;2.53;;
19026;SDS011;9646;52.034;5.554;2024-02-26T03:56:10;3.15;;;2.40;;
19026;SDS011;9646;52.034;5.554;2024-02-26T03:58:38;2.85;;;2.13;;
19026;SDS011;9646;52.034;5.554;2024-02-26T04:01:07;3.25;;;2.60;;
19026;SDS011;9646;52.034;5.554;2024-02-26T04:03:34;2.80;;;2.33;;
19026;SDS011;9646;52.034;5.554;2024-02-26T04:06:03;2.42;;;2.22;;
19026;SDS011;9646;52.034;5.554;2024-02-26T04:08:30;3.05;;;2.60;;
19026;SDS011;9646;52.034;5.554;2024-02-26T04:10:57;2.75;;;2.50;;
19026;SDS011;9646;52.034;5.554;2024-02-26T04:13:25;3.00;;;2.40;;
19026;SDS011;9646;52.034;5.554;2024-02-26T04:15:52;2.17;;;1.88;;
19026;SDS011;9646;52.034;5.554;2024-02-26T04:18:19;2.95;;;2.40;;
19026;SDS011;9646;52.034;5.554;2024-02-26T04:20:46;2.80;;;2.40;;
19026;SDS011;9646;52.034;5.554;2024-02-26T04:23:15;2.47;;;2.28;;
19026;SDS011;9646;52.034;5.554;2024-02-26T04:25:42;2.65;;;2.15;;
19026;SDS011;9646;52.034;5.554;2024-02-26T04:28:09;7.30;;;2.65;;
19026;SDS011;9646;52.034;5.554;2024-02-26T04:30:37;4.75;;;2.75;;
19026;SDS011;9646;52.034;5.554;2024-02-26T04:33:04;4.53;;;2.53;;
19026;SDS011;9646;52.034;5.554;2024-02-26T04:35:31;2.17;;;1.98;;
19026;SDS011;9646;52.034;5.554;2024-02-26T04:38:00;3.00;;;2.45;;
19026;SDS011;9646;52.034;5.554;2024-02-26T04:40:29;3.50;;;2.70;;
19026;SDS011;9646;52.034;5.554;2024-02-26T04:42:56;2.35;;;2.10;;
19026;SDS011;9646;52.034;5.554;2024-02-26T04:45:23;3.10;;;2.80;;
19026;SDS011;9646;52.034;5.554;2024-02-26T04:47:50;2.28;;;2.00;;
19026;SDS011;9646;52.034;5.554;2024-02-26T04:50:17;2.55;;;2.35;;
19026;SDS011;9646;52.034;5.554;2024-02-26T04:52:46;2.80;;;2.42;;
19026;SDS011;9646;52.034;5.554;2024-02-26T04:55:13;3.17;;;2.65;;
19026;SDS011;9646;52.034;5.554;2024-02-26T04:57:42;3.47;;;2.40;;
19026;SDS011;9646;52.034;5.554;2024-02-26T05:00:10;2.88;;;2.38;;
19026;SDS011;9646;52.034;5.554;2024-02-26T05:02:37;3.28;;;2.60;;
19026;SDS011;9646;52.034;5.554;2024-02-26T05:05:05;2.58;;;2.35;;
19026;SDS011;9646;52.034;5.554;2024-02-26T05:07:33;3.35;;;2.40;;
19026;SDS011;9646;52.034;5.554;2024-02-26T05:10:00;3.00;;;2.70;;
19026;SDS011;9646;52.034;5.554;2024-02-26T05:12:28;3.85;;;2.67;;
19026;SDS011;9646;52.034;5.554;2024-02-26T05:14:57;2.42;;;2.20;;
19026;SDS011;9646;52.034;5.554;2024-02-26T05:17:24;2.63;;;2.42;;
19026;SDS011;9646;52.034;5.554;2024-02-26T05:19:51;3.50;;;2.78;;
19026;SDS011;9646;52.034;5.554;2024-02-26T05:22:18;3.25;;;2.28;;
19026;SDS011;9646;52.034;5.554;2024-02-26T05:24:46;2.25;;;1.80;;
19026;SDS011;9646;52.034;5.554;2024-02-26T05:27:13;2.70;;;2.35;;
19026;SDS011;9646;52.034;5.554;2024-02-26T05:29:40;3.40;;;2.75;;
19026;SDS011;9646;52.034;5.554;2024-02-26T05:32:08;2.10;;;1.90;;
19026;SDS011;9646;52.034;5.554;2024-02-26T05:34:36;2.38;;;2.08;;
19026;SDS011;9646;52.034;5.554;2024-02-26T05:37:03;3.13;;;1.90;;
19026;SDS011;9646;52.034;5.554;2024-02-26T05:39:30;3.30;;;2.22;;
19026;SDS011;9646;52.034;5.554;2024-02-26T05:41:56;4.07;;;2.40;;
19026;SDS011;9646;52.034;5.554;2024-02-26T05:44:25;2.72;;;1.88;;
19026;SDS011;9646;52.034;5.554;2024-02-26T05:46:52;2.22;;;1.85;;
19026;SDS011;9646;52.034;5.554;2024-02-26T05:49:21;2.20;;;2.00;;
19026;SDS011;9646;52.034;5.554;2024-02-26T05:51:48;5.18;;;2.17;;
19026;SDS011;9646;52.034;5.554;2024-02-26T05:54:15;4.93;;;1.95;;
19026;SDS011;9646;52.034;5.554;2024-02-26T05:56:45;2.17;;;1.95;;
19026;SDS011;9646;52.034;5.554;2024-02-26T05:59:12;2.17;;;1.90;;
19026;SDS011;9646;52.034;5.554;2024-02-26T06:01:40;2.58;;;2.10;;
19026;SDS011;9646;52.034;5.554;2024-02-26T06:04:07;4.28;;;2.63;;
19026;SDS011;9646;52.034;5.554;2024-02-26T06:06:36;2.97;;;2.42;;
19026;SDS011;9646;52.034;5.554;2024-02-26T06:09:03;6.78;;;3.22;;
19026;SDS011;9646;52.034;5.554;2024-02-26T06:11:31;18.60;;;6.75;;
19026;SDS011;9646;52.034;5.554;2024-02-26T06:13:58;17.75;;;7.57;;
19026;SDS011;9646;52.034;5.554;2024-02-26T06:16:25;10.88;;;4.97;;
19026;SDS011;9646;52.034;5.554;2024-02-26T06:18:52;8.98;;;3.97;;
19026;SDS011;9646;52.034;5.554;2024-02-26T06:21:20;10.50;;;4.47;;
19026;SDS011;9646;52.034;5.554;2024-02-26T06:23:48;8.68;;;4.07;;
19026;SDS011;9646;52.034;5.554;2024-02-26T06:26:15;10.83;;;5.10;;
19026;SDS011;9646;52.034;5.554;2024-02-26T06:28:43;8.75;;;4.50;;
19026;SDS011;9646;52.034;5.554;2024-02-26T06:31:10;8.90;;;4.28;;
19026;SDS011;9646;52.034;5.554;2024-02-26T06:33:37;9.40;;;4.70;;
19026;SDS011;9646;52.034;5.554;2024-02-26T06:36:04;11.93;;;4.68;;
19026;SDS011;9646;52.034;5.554;2024-02-26T06:38:31;10.75;;;4.60;;
19026;SDS011;9646;52.034;5.554;2024-02-26T06:41:00;10.07;;;5.05;;
19026;SDS011;9646;52.034;5.554;2024-02-26T06:43:28;11.40;;;4.90;;
19026;SDS011;9646;52.034;5.554;2024-02-26T06:45:55;11.30;;;4.90;;
19026;SDS011;9646;52.034;5.554;2024-02-26T06:48:23;8.40;;;4.47;;
19026;SDS011;9646;52.034;5.554;2024-02-26T06:50:50;8.95;;;3.80;;
19026;SDS011;9646;52.034;5.554;2024-02-26T06:53:17;9.27;;;4.32;;
19026;SDS011;9646;52.034;5.554;2024-02-26T06:55:44;8.45;;;5.28;;
19026;SDS011;9646;52.034;5.554;2024-02-26T06:58:13;11.85;;;5.05;;
19026;SDS011;9646;52.034;5.554;2024-02-26T07:00:40;7.70;;;4.50;;
19026;SDS011;9646;52.034;5.554;2024-02-26T07:03:07;10.48;;;5.38;;
19026;SDS011;9646;52.034;5.554;2024-02-26T07:05:35;9.23;;;4.20;;
19026;SDS011;9646;52.034;5.554;2024-02-26T07:08:03;11.93;;;5.95;;
19026;SDS011;9646;52.034;5.554;2024-02-26T07:10:30;16.63;;;6.20;;
19026;SDS011;9646;52.034;5.554;2024-02-26T07:12:57;15.90;;;7.28;;
19026;SDS011;9646;52.034;5.554;2024-02-26T07:15:26;12.23;;;5.53;;
19026;SDS011;9646;52.034;5.554;2024-02-26T07:17:53;10.30;;;5.85;;
19026;SDS011;9646;52.034;5.554;2024-02-26T07:20:20;15.80;;;5.63;;
19026;SDS011;9646;52.034;5.554;2024-02-26T07:22:47;13.50;;;5.63;;
19026;SDS011;9646;52.034;5.554;2024-02-26T07:25:14;13.68;;;6.03;;
19026;SDS011;9646;52.034;5.554;2024-02-26T07:27:42;11.57;;;5.15;;
19026;SDS011;9646;52.034;5.554;2024-02-26T07:30:09;10.68;;;6.15;;
19026;SDS011;9646;52.034;5.554;2024-02-26T07:32:38;10.00;;;5.88;;
19026;SDS011;9646;52.034;5.554;2024-02-26T07:35:05;13.15;;;5.78;;
19026;SDS011;9646;52.034;5.554;2024-02-26T07:37:33;10.45;;;4.72;;
19026;SDS011;9646;52.034;5.554;2024-02-26T07:40:00;10.13;;;4.78;;
19026;SDS011;9646;52.034;5.554;2024-02-26T07:42:28;9.10;;;5.13;;
19026;SDS011;9646;52.034;5.554;2024-02-26T07:44:55;10.82;;;5.63;;
19026;SDS011;9646;52.034;5.554;2024-02-26T07:47:22;10.93;;;4.97;;
19026;SDS011;9646;52.034;5.554;2024-02-26T07:49:51;12.30;;;4.88;;
19026;SDS011;9646;52.034;5.554;2024-02-26T07:52:18;7.95;;;4.20;;
19026;SDS011;9646;52.034;5.554;2024-02-26T07:54:45;9.77;;;6.05;;
19026;SDS011;9646;52.034;5.554;2024-02-26T07:57:12;11.77;;;5.82;;
19026;SDS011;9646;52.034;5.554;2024-02-26T07:59:42;8.95;;;5.72;;
19026;SDS011;9646;52.034;5.554;2024-02-26T08:02:10;8.68;;;5.60;;
19026;SDS011;9646;52.034;5.554;2024-02-26T08:04:37;12.15;;;6.88;;
19026;SDS011;9646;52.034;5.554;2024-02-26T08:07:05;8.57;;;4.80;;
19026;SDS011;9646;52.034;5.554;2024-02-26T08:09:32;8.10;;;4.40;;
19026;SDS011;9646;52.034;5.554;2024-02-26T08:11:59;9.43;;;5.10;;
19026;SDS011;9646;52.034;5.554;2024-02-26T08:14:27;7.88;;;4.63;;
19026;SDS011;9646;52.034;5.554;2024-02-26T08:16:55;10.60;;;6.45;;
19026;SDS011;9646;52.034;5.554;2024-02-26T08:19:22;8.95;;;6.47;;
19026;SDS011;9646;52.034;5.554;2024-02-26T08:21:49;11.27;;;6.35;;
19026;SDS011;9646;52.034;5.554;2024-02-26T08:24:18;14.18;;;6.57;;
19026;SDS011;9646;52.034;5.554;2024-02-26T08:26:45;10.57;;;6.30;;
19026;SDS011;9646;52.034;5.554;2024-02-26T08:29:12;9.15;;;5.20;;
19026;SDS011;9646;52.034;5.554;2024-02-26T08:31:39;10.00;;;6.22;;
19026;SDS011;9646;52.034;5.554;2024-02-26T08:34:06;9.48;;;5.93;;
19026;SDS011;9646;52.034;5.554;2024-02-26T08:36:34;9.70;;;6.72;;
19026;SDS011;9646;52.034;5.554;2024-02-26T08:39:01;12.38;;;7.22;;
19026;SDS011;9646;52.034;5.554;2024-02-26T08:41:29;10.23;;;6.22;;
19026;SDS011;9646;52.034;5.554;2024-02-26T08:43:57;7.90;;;5.32;;
19026;SDS011;9646;52.034;5.554;2024-02-26T08:46:24;9.00;;;5.53;;
19026;SDS011;9646;52.034;5.554;2024-02-26T08:48:51;7.28;;;3.88;;
19026;SDS011;9646;52.034;5.554;2024-02-26T08:51:18;8.25;;;5.20;;
19026;SDS011;9646;52.034;5.554;2024-02-26T08:53:46;9.75;;;5.63;;
19026;SDS011;9646;52.034;5.554;2024-02-26T08:56:13;9.68;;;6.32;;
19026;SDS011;9646;52.034;5.554;2024-02-26T08:58:43;9.98;;;5.57;;
19026;SDS011;9646;52.034;5.554;2024-02-26T09:01:13;9.27;;;5.30;;
19026;SDS011;9646;52.034;5.554;2024-02-26T09:03:40;9.13;;;5.95;;
19026;SDS011;9646;52.034;5.554;2024-02-26T09:06:08;8.95;;;6.13;;
19026;SDS011;9646;52.034;5.554;2024-02-26T09:08:36;8.05;;;5.78;;
19026;SDS011;9646;52.034;5.554;2024-02-26T09:11:04;8.55;;;5.28;;
19026;SDS011;9646;52.034;5.554;2024-02-26T09:13:31;6.30;;;4.45;;
19026;SDS011;9646;52.034;5.554;2024-02-26T09:16:00;6.22;;;4.63;;
19026;SDS011;9646;52.034;5.554;2024-02-26T09:18:27;6.82;;;4.53;;
19026;SDS011;9646;52.034;5.554;2024-02-26T09:20:56;7.43;;;4.78;;
19026;SDS011;9646;52.034;5.554;2024-02-26T09:23:23;8.25;;;5.05;;
19026;SDS011;9646;52.034;5.554;2024-02-26T09:25:50;6.20;;;4.75;;
19026;SDS011;9646;52.034;5.554;2024-02-26T09:28:17;6.38;;;4.40;;
19026;SDS011;9646;52.034;5.554;2024-02-26T09:30:44;6.80;;;4.68;;
19026;SDS011;9646;52.034;5.554;2024-02-26T09:33:14;7.22;;;4.47;;
19026;SDS011;9646;52.034;5.554;2024-02-26T09:35:41;5.57;;;4.40;;
19026;SDS011;9646;52.034;5.554;2024-02-26T09:38:08;5.60;;;3.75;;
19026;SDS011;9646;52.034;5.554;2024-02-26T09:40:37;5.47;;;4.20;;
19026;SDS011;9646;52.034;5.554;2024-02-26T09:43:04;6.85;;;4.00;;
19026;SDS011;9646;52.034;5.554;2024-02-26T09:45:33;4.40;;;3.28;;
19026;SDS011;9646;52.034;5.554;2024-02-26T09:48:00;4.55;;;3.42;;
19026;SDS011;9646;52.034;5.554;2024-02-26T09:50:29;5.15;;;4.00;;
19026;SDS011;9646;52.034;5.554;2024-02-26T09:52:56;5.00;;;3.75;;
19026;SDS011;9646;52.034;5.554;2024-02-26T09:55:25;4.68;;;3.50;;
19026;SDS011;9646;52.034;5.554;2024-02-26T09:57:52;5.75;;;3.50;;
19026;SDS011;9646;52.034;5.554;2024-02-26T10:00:20;4.55;;;2.75;;
19026;SDS011;9646;52.034;5.554;2024-02-26T10:02:48;3.70;;;3.25;;
19026;SDS011;9646;52.034;5.554;2024-02-26T10:05:16;4.57;;;3.35;;
19026;SDS011;9646;52.034;5.554;2024-02-26T10:07:45;5.47;;;3.30;;
19026;SDS011;9646;52.034;5.554;2024-02-26T10:10:13;6.35;;;2.95;;
19026;SDS011;9646;52.034;5.554;2024-02-26T10:12:40;3.70;;;2.50;;
19026;SDS011;9646;52.034;5.554;2024-02-26T10:15:08;4.50;;;3.38;;
19026;SDS011;9646;52.034;5.554;2024-02-26T10:17:35;5.15;;;2.85;;
19026;SDS011;9646;52.034;5.554;2024-02-26T10:20:12;3.97;;;3.10;;
19026;SDS011;9646;52.034;5.554;2024-02-26T10:22:41;3.08;;;2.33;;
19026;SDS011;9646;52.034;5.554;2024-02-26T10:25:10;5.53;;;2.97;;
19026;SDS011;9646;52.034;5.554;2024-02-26T10:27:37;4.03;;;2.95;;
19026;SDS011;9646;52.034;5.554;2024-02-26T10:30:05;4.38;;;2.95;;
19026;SDS011;9646;52.034;5.554;2024-02-26T10:32:42;2.97;;;2.35;;
19026;SDS011;9646;52.034;5.554;2024-02-26T10:35:10;4.65;;;2.95;;
19026;SDS011;9646;52.034;5.554;2024-02-26T10:37:37;3.08;;;2.67;;
19026;SDS011;9646;52.034;5.554;2024-02-26T10:40:05;2.35;;;2.15;;
19026;SDS011;9646;52.034;5.554;2024-02-26T10:42:34;4.03;;;2.60;;
19026;SDS011;9646;52.034;5.554;2024-02-26T10:45:01;4.53;;;1.75;;
19026;SDS011;9646;52.034;5.554;2024-02-26T10:47:28;3.35;;;2.00;;
19026;SDS011;9646;52.034;5.554;2024-02-26T10:49:56;3.28;;;2.60;;
19026;SDS011;9646;52.034;5.554;2024-02-26T10:52:24;2.92;;;1.85;;
19026;SDS011;9646;52.034;5.554;2024-02-26T10:54:53;3.05;;;2.60;;
19026;SDS011;9646;52.034;5.554;2024-02-26T10:57:20;3.75;;;2.55;;
19026;SDS011;9646;52.034;5.554;2024-02-26T10:59:49;4.75;;;2.20;;
19026;SDS011;9646;52.034;5.554;2024-02-26T11:02:17;3.00;;;2.45;;
19026;SDS011;9646;52.034;5.554;2024-02-26T11:04:45;3.28;;;2.58;;
19026;SDS011;9646;52.034;5.554;2024-02-26T11:07:12;3.85;;;2.53;;
19026;SDS011;9646;52.034;5.554;2024-02-26T11:09:39;2.97;;;2.05;;
19026;SDS011;9646;52.034;5.554;2024-02-26T11:12:10;2.65;;;1.77;;
19026;SDS011;9646;52.034;5.554;2024-02-26T11:14:38;4.32;;;2.60;;
19026;SDS011;9646;52.034;5.554;2024-02-26T11:17:08;2.97;;;2.10;;
19026;SDS011;9646;52.034;5.554;2024-02-26T11:19:38;2.88;;;1.98;;
19026;SDS011;9646;52.034;5.554;2024-02-26T11:22:07;2.67;;;2.17;;
19026;SDS011;9646;52.034;5.554;2024-02-26T11:24:35;3.67;;;2.38;;
19026;SDS011;9646;52.034;5.554;2024-02-26T11:27:06;3.83;;;2.33;;
19026;SDS011;9646;52.034;5.554;2024-02-26T11:29:39;3.25;;;2.00;;
19026;SDS011;9646;52.034;5.554;2024-02-26T11:32:09;2.63;;;1.98;;
19026;SDS011;9646;52.034;5.554;2024-02-26T11:34:36;3.45;;;2.40;;
19026;SDS011;9646;52.034;5.554;2024-02-26T11:37:10;4.03;;;2.75;;
19026;SDS011;9646;52.034;5.554;2024-02-26T11:39:37;2.92;;;2.00;;
19026;SDS011;9646;52.034;5.554;2024-02-26T11:42:05;2.75;;;2.17;;
19026;SDS011;9646;52.034;5.554;2024-02-26T11:44:33;2.78;;;2.08;;
19026;SDS011;9646;52.034;5.554;2024-02-26T11:47:10;3.33;;;2.38;;
19026;SDS011;9646;52.034;5.554;2024-02-26T11:49:37;3.15;;;2.58;;
19026;SDS011;9646;52.034;5.554;2024-02-26T11:52:05;2.65;;;1.70;;
19026;SDS011;9646;52.034;5.554;2024-02-26T11:54:45;2.10;;;1.73;;
19026;SDS011;9646;52.034;5.554;2024-02-26T11:57:22;2.92;;;2.22;;
19026;SDS011;9646;52.034;5.554;2024-02-26T11:59:50;3.10;;;2.30;;
19026;SDS011;9646;52.034;5.554;2024-02-26T12:05:05;2.47;;;2.13;;
19026;SDS011;9646;52.034;5.554;2024-02-26T12:07:33;2.70;;;2.30;;
19026;SDS011;9646;52.034;5.554;2024-02-26T12:13:02;3.78;;;2.92;;
19026;SDS011;9646;52.034;5.554;2024-02-26T12:15:31;3.55;;;2.70;;
19026;SDS011;9646;52.034;5.554;2024-02-26T12:18:00;3.00;;;2.60;;
19026;SDS011;9646;52.034;5.554;2024-02-26T12:20:29;2.72;;;2.13;;
19026;SDS011;9646;52.034;5.554;2024-02-26T12:22:56;2.55;;;2.08;;
19026;SDS011;9646;52.034;5.554;2024-02-26T12:25:25;2.63;;;2.20;;
19026;SDS011;9646;52.034;5.554;2024-02-26T12:27:52;2.00;;;1.52;;
19026;SDS011;9646;52.034;5.554;2024-02-26T12:30:20;4.30;;;2.13;;
19026;SDS011;9646;52.034;5.554;2024-02-26T12:32:47;2.75;;;1.95;;
19026;SDS011;9646;52.034;5.554;2024-02-26T12:35:15;2.67;;;2.05;;
19026;SDS011;9646;52.034;5.554;2024-02-26T12:37:45;3.15;;;2.53;;
19026;SDS011;9646;52.034;5.554;2024-02-26T12:40:13;2.72;;;2.33;;
19026;SDS011;9646;52.034;5.554;2024-02-26T12:42:40;3.13;;;2.47;;
19026;SDS011;9646;52.034;5.554;2024-02-26T12:45:08;2.70;;;2.13;;
19026;SDS011;9646;52.034;5.554;2024-02-26T12:47:37;3.53;;;2.63;;
19026;SDS011;9646;52.034;5.554;2024-02-26T12:50:04;4.20;;;2.72;;
19026;SDS011;9646;52.034;5.554;2024-02-26T12:52:32;3.92;;;2.90;;
19026;SDS011;9646;52.034;5.554;2024-02-26T12:55:01;2.30;;;2.00;;
19026;SDS011;9646;52.034;5.554;2024-02-26T12:57:29;3.65;;;2.25;;
19026;SDS011;9646;52.034;5.554;2024-02-26T12:59:57;2.95;;;1.90;;
19026;SDS011;9646;52.034;5.554;2024-02-26T13:02:25;4.65;;;2.00;;
19026;SDS011;9646;52.034;5.554;2024-02-26T13:04:54;3.00;;;2.35;;
19026;SDS011;9646;52.034;5.554;2024-02-26T13:07:22;2.53;;;1.92;;
19026;SDS011;9646;52.034;5.554;2024-02-26T13:09:50;2.10;;;1.90;;
19026;SDS011;9646;52.034;5.554;2024-02-26T13:12:19;2.65;;;1.85;;
19026;SDS011;9646;52.034;5.554;2024-02-26T13:14:47;2.55;;;2.00;;
19026;SDS011;9646;52.034;5.554;2024-02-26T13:17:14;1.85;;;1.67;;
19026;SDS011;9646;52.034;5.554;2024-02-26T13:19:50;2.40;;;1.95;;
19026;SDS011;9646;52.034;5.554;2024-02-26T13:22:17;3.03;;;2.53;;
19026;SDS011;9646;52.034;5.554;2024-02-26T13:24:53;5.00;;;2.30;;
19026;SDS011;9646;52.034;5.554;2024-02-26T13:27:23;2.97;;;2.15;;
19026;SDS011;9646;52.034;5.554;2024-02-26T13:30:01;2.15;;;1.88;;
19026;SDS011;9646;52.034;5.554;2024-02-26T13:32:31;3.53;;;2.40;;
19026;SDS011;9646;52.034;5.554;2024-02-26T13:35:04;1.95;;;1.33;;
19026;SDS011;9646;52.034;5.554;2024-02-26T13:37:31;2.42;;;1.92;;
19026;SDS011;9646;52.034;5.554;2024-02-26T13:39:58;3.20;;;2.78;;
19026;SDS011;9646;52.034;5.554;2024-02-26T13:42:30;4.05;;;2.38;;
19026;SDS011;9646;52.034;5.554;2024-02-26T13:44:59;1.90;;;1.73;;
19026;SDS011;9646;52.034;5.554;2024-02-26T13:47:26;6.03;;;3.17;;
19026;SDS011;9646;52.034;5.554;2024-02-26T13:49:53;10.07;;;3.75;;
19026;SDS011;9646;52.034;5.554;2024-02-26T13:52:21;14.48;;;4.38;;
19026;SDS011;9646;52.034;5.554;2024-02-26T13:54:48;15.95;;;5.68;;
19026;SDS011;9646;52.034;5.554;2024-02-26T13:57:16;13.80;;;4.90;;
19026;SDS011;9646;52.034;5.554;2024-02-26T13:59:45;16.73;;;5.57;;
19026;SDS011;9646;52.034;5.554;2024-02-26T14:02:12;13.90;;;5.65;;
19026;SDS011;9646;52.034;5.554;2024-02-26T14:04:40;19.20;;;5.80;;
19026;SDS011;9646;52.034;5.554;2024-02-26T14:07:07;13.77;;;5.15;;
19026;SDS011;9646;52.034;5.554;2024-02-26T14:09:34;10.55;;;4.60;;
19026;SDS011;9646;52.034;5.554;2024-02-26T14:12:01;14.48;;;4.90;;
19026;SDS011;9646;52.034;5.554;2024-02-26T14:14:30;11.98;;;4.65;;
19026;SDS011;9646;52.034;5.554;2024-02-26T14:17:03;13.23;;;4.80;;
19026;SDS011;9646;52.034;5.554;2024-02-26T14:19:31;15.40;;;5.30;;
19026;SDS011;9646;52.034;5.554;2024-02-26T14:21:58;13.38;;;4.65;;
19026;SDS011;9646;52.034;5.554;2024-02-26T14:24:25;14.50;;;4.78;;
19026;SDS011;9646;52.034;5.554;2024-02-26T14:26:52;16.08;;;4.63;;
19026;SDS011;9646;52.034;5.554;2024-02-26T14:29:19;19.40;;;5.43;;
19026;SDS011;9646;52.034;5.554;2024-02-26T14:31:52;8.75;;;5.13;;
19026;SDS011;9646;52.034;5.554;2024-02-26T14:34:22;11.70;;;4.47;;
19026;SDS011;9646;52.034;5.554;2024-02-26T14:36:49;6.90;;;3.60;;
19026;SDS011;9646;52.034;5.554;2024-02-26T14:39:16;6.38;;;3.40;;
19026;SDS011;9646;52.034;5.554;2024-02-26T14:41:44;10.32;;;4.03;;
19026;SDS011;9646;52.034;5.554;2024-02-26T14:44:11;9.80;;;3.85;;
19026;SDS011;9646;52.034;5.554;2024-02-26T14:46:38;6.22;;;3.60;;
19026;SDS011;9646;52.034;5.554;2024-02-26T14:49:05;6.93;;;3.20;;
19026;SDS011;9646;52.034;5.554;2024-02-26T14:51:33;5.55;;;3.28;;
19026;SDS011;9646;52.034;5.554;2024-02-26T14:54:00;10.30;;;4.22;;
19026;SDS011;9646;52.034;5.554;2024-02-26T14:56:28;7.07;;;3.13;;
19026;SDS011;9646;52.034;5.554;2024-02-26T14:58:55;5.22;;;3.30;;
19026;SDS011;9646;52.034;5.554;2024-02-26T15:01:22;6.10;;;2.80;;
19026;SDS011;9646;52.034;5.554;2024-02-26T15:03:50;5.13;;;3.17;;
19026;SDS011;9646;52.034;5.554;2024-02-26T15:06:17;4.75;;;2.78;;
19026;SDS011;9646;52.034;5.554;2024-02-26T15:08:46;6.82;;;3.28;;
19026;SDS011;9646;52.034;5.554;2024-02-26T15:11:14;9.65;;;2.80;;